Time;durP1;ratioP1;P1;durP2;ratioP2;P2;SDS_P1;SDS_P2;PMS_P1;PMS_P2;Temp;Humidity;BMP_temperature;BMP_pressure;BME280_temperature;BME280_humidity;BME280_pressure;Samples;Min_cycle;Max_cycle;Signal;HPM_P1;HPM_P2
2021/10/03 00:02:03;;;;;;;4.05;1.37;;;;;;;;;;4393034;32;20157;-84
2021/10/03 00:04:30;;;;;;;1.58;1.30;;;;;;;;;;4406135;32;20153;-84
2021/10/03 00:06:55;;;;;;;3.15;1.60;;;;;;;;;;4419869;32;20594;-84
2021/10/03 00:09:24;;;;;;;3.58;1.55;;;;;;;;;;4421242;32;20192;-84
2021/10/03 00:11:53;;;;;;;1.95;1.50;;;;;;;;;;4408183;32;20679;-83
2021/10/03 00:14:19;;;;;;;2.10;1.90;;;;;;;;;;4420746;32;20198;-83
2021/10/03 00:16:48;;;;;;;2.95;1.50;;;;;;;;;;4392366;32;20651;-83
2021/10/03 00:19:14;;;;;;;2.00;1.55;;;;;;;;;;4393349;32;20154;-82
2021/10/03 00:21:52;;;;;;;2.05;1.60;;;;;;;;;;4422032;32;20142;-83
2021/10/03 00:24:25;;;;;;;1.98;1.33;;;;;;;;;;4407700;32;20149;-83
2021/10/03 00:27:05;;;;;;;2.83;1.50;;;;;;;;;;4422367;32;20520;-83
2021/10/03 00:29:43;;;;;;;2.05;1.65;;;;;;;;;;4422036;32;20187;-83
2021/10/03 00:32:15;;;;;;;1.23;1.12;;;;;;;;;;4422342;32;20458;-83
2021/10/03 00:34:56;;;;;;;2.58;1.33;;;;;;;;;;4407523;32;20157;-83
2021/10/03 00:37:21;;;;;;;1.52;1.30;;;;;;;;;;4421987;32;20123;-83
2021/10/03 00:39:47;;;;;;;2.10;1.20;;;;;;;;;;4419167;32;20157;-83
2021/10/03 00:42:25;;;;;;;2.47;1.30;;;;;;;;;;4421282;32;20129;-83
2021/10/03 00:44:50;;;;;;;1.35;1.05;;;;;;;;;;4421119;32;20463;-83
2021/10/03 00:47:34;;;;;;;1.27;1.10;;;;;;;;;;4421188;32;20142;-84
2021/10/03 00:49:59;;;;;;;3.55;1.20;;;;;;;;;;4421581;32;20217;-83
2021/10/03 00:52:27;;;;;;;26.48;15.18;;;;;;;;;;4421189;32;20180;-81
2021/10/03 00:54:53;;;;;;;3.22;1.80;;;;;;;;;;4407612;32;20640;-82
2021/10/03 00:57:49;;;;;;;7.03;4.87;;;;;;;;;;4421093;32;20150;-83
2021/10/03 01:00:23;;;;;;;2.50;1.00;;;;;;;;;;4399866;32;20184;-82
2021/10/03 01:05:36;;;;;;;2.03;0.85;;;;;;;;;;4411400;32;20523;-81
2021/10/03 01:08:03;;;;;;;2.78;0.90;;;;;;;;;;4406279;32;20149;-82
2021/10/03 01:10:29;;;;;;;1.55;0.90;;;;;;;;;;4391828;32;20163;-83
2021/10/03 01:13:12;;;;;;;3.12;0.90;;;;;;;;;;4410941;32;20164;-84
2021/10/03 01:15:58;;;;;;;3.75;1.10;;;;;;;;;;4421209;32;20164;-85
2021/10/03 01:18:24;;;;;;;4.03;1.12;;;;;;;;;;4421662;32;20156;-85
2021/10/03 01:20:51;;;;;;;2.10;1.23;;;;;;;;;;4421107;32;20130;-85
2021/10/03 01:23:17;;;;;;;2.65;1.10;;;;;;;;;;4420683;32;20167;-85
2021/10/03 01:25:48;;;;;;;3.15;1.30;;;;;;;;;;4421148;32;20531;-85
2021/10/03 01:28:14;;;;;;;2.72;1.40;;;;;;;;;;4406995;32;20640;-84
2021/10/03 01:30:44;;;;;;;7.37;2.12;;;;;;;;;;4418751;32;20166;-83
2021/10/03 01:33:15;;;;;;;4.07;1.73;;;;;;;;;;4406637;32;20239;-84
2021/10/03 01:41:56;;;;;;;4.95;1.60;;;;;;;;;;4421141;32;20191;-83
2021/10/03 01:44:21;;;;;;;5.93;2.08;;;;;;;;;;4401371;32;20181;-83
2021/10/03 01:47:15;;;;;;;2.60;1.67;;;;;;;;;;4391320;32;20146;-82
2021/10/03 01:56:05;;;;;;;2.10;1.15;;;;;;;;;;4405796;32;20183;-85
2021/10/03 01:58:31;;;;;;;5.32;1.45;;;;;;;;;;4389761;32;20192;-83
2021/10/03 02:01:09;;;;;;;5.00;1.25;;;;;;;;;;4405653;32;20209;-83
2021/10/03 02:03:59;;;;;;;5.15;1.62;;;;;;;;;;4405540;32;20328;-84
2021/10/03 02:09:29;;;;;;;3.85;0.90;;;;;;;;;;4414463;32;20605;-84
2021/10/03 02:11:55;;;;;;;7.93;1.10;;;;;;;;;;4417160;32;20158;-84
2021/10/03 02:14:27;;;;;;;5.40;1.17;;;;;;;;;;4389970;32;20169;-83
2021/10/03 02:16:55;;;;;;;6.00;1.20;;;;;;;;;;4389940;32;20579;-83
2021/10/03 02:19:24;;;;;;;5.60;1.33;;;;;;;;;;4389421;32;20161;-84
2021/10/03 02:21:49;;;;;;;5.90;1.30;;;;;;;;;;4400099;32;20142;-84
2021/10/03 02:24:15;;;;;;;8.57;2.05;;;;;;;;;;4393744;32;20181;-85
2021/10/03 02:26:41;;;;;;;6.32;1.35;;;;;;;;;;4407940;32;20247;-85
2021/10/03 02:29:15;;;;;;;11.20;1.42;;;;;;;;;;4407757;32;20259;-85
2021/10/03 02:31:41;;;;;;;7.07;1.50;;;;;;;;;;4394379;32;20169;-85
2021/10/03 02:37:18;;;;;;;5.87;1.37;;;;;;;;;;4331353;33;20221;-84
2021/10/03 02:39:46;;;;;;;10.63;2.10;;;;;;;;;;4331023;33;20132;-84
2021/10/03 02:42:12;;;;;;;8.38;1.65;;;;;;;;;;4390854;32;20177;-84
2021/10/03 02:44:37;;;;;;;11.27;2.12;;;;;;;;;;4408256;32;20135;-83
2021/10/03 02:47:04;;;;;;;7.20;1.37;;;;;;;;;;4406856;32;20185;-84
2021/10/03 02:49:32;;;;;;;11.95;1.73;;;;;;;;;;4415815;32;20207;-84
2021/10/03 02:51:58;;;;;;;12.30;1.83;;;;;;;;;;4408640;32;20229;-84
2021/10/03 02:54:24;;;;;;;7.18;1.60;;;;;;;;;;4407556;32;20165;-84
2021/10/03 02:57:21;;;;;;;8.60;1.70;;;;;;;;;;4393512;32;20157;-83
2021/10/03 02:59:56;;;;;;;5.00;1.30;;;;;;;;;;4373710;32;20228;-83
2021/10/03 03:02:28;;;;;;;9.02;1.75;;;;;;;;;;4407442;32;20134;-83
2021/10/03 03:05:08;;;;;;;5.47;1.45;;;;;;;;;;4407360;32;20207;-83
2021/10/03 03:07:33;;;;;;;8.38;1.58;;;;;;;;;;4408028;32;20161;-82
2021/10/03 03:12:58;;;;;;;8.93;1.40;;;;;;;;;;4389143;32;20150;-82
2021/10/03 03:15:30;;;;;;;8.10;1.70;;;;;;;;;;4393770;32;20189;-83
2021/10/03 03:17:56;;;;;;;9.07;1.80;;;;;;;;;;4393798;32;20219;-82
2021/10/03 03:20:28;;;;;;;8.02;1.67;;;;;;;;;;4407322;32;20548;-83
2021/10/03 03:22:56;;;;;;;10.50;2.00;;;;;;;;;;4408012;32;20219;-82
2021/10/03 03:25:32;;;;;;;8.80;1.62;;;;;;;;;;4407269;32;20134;-83
2021/10/03 03:27:57;;;;;;;8.43;2.10;;;;;;;;;;4396582;32;20160;-83
2021/10/03 03:30:51;;;;;;;;;;;;;;;;;;;;;
2021/10/03 03:33:19;;;;;;;9.70;1.87;;;;;;;;;;4402556;32;20150;-82
2021/10/03 03:35:45;;;;;;;7.95;1.73;;;;;;;;;;4408124;32;20249;-82
2021/10/03 03:38:36;;;;;;;12.35;1.98;;;;;;;;;;4421847;32;20154;-82
2021/10/03 03:41:11;;;;;;;8.93;2.30;;;;;;;;;;4423746;32;20167;-82
2021/10/03 03:46:55;;;;;;;;;;;;;;;;;;;;;
2021/10/03 03:52:27;;;;;;;9.63;2.20;;;;;;;;;;4407072;32;21055;-82
2021/10/03 03:55:38;;;;;;;9.23;2.40;;;;;;;;;;4407204;32;20207;-82
2021/10/03 03:58:34;;;;;;;;;;;;;;;;;;;;;
2021/10/03 04:00:26;;;;;;;4.95;1.80;;;;;;;;;;4403098;32;20199;-82
2021/10/03 04:03:30;;;;;;;9.57;2.00;;;;;;;;;;4402360;32;20556;-82
2021/10/03 04:05:56;;;;;;;8.00;1.85;;;;;;;;;;4405776;32;20196;-81
2021/10/03 04:08:29;;;;;;;11.30;2.72;;;;;;;;;;4407521;32;20210;-83
2021/10/03 04:10:54;;;;;;;12.55;2.33;;;;;;;;;;4418693;32;20158;-82
2021/10/03 04:16:54;;;;;;;11.60;3.08;;;;;;;;;;4344808;33;20185;-83
2021/10/03 04:22:39;;;;;;;13.00;2.05;;;;;;;;;;4349813;32;20242;-83
2021/10/03 04:25:08;;;;;;;9.55;2.08;;;;;;;;;;4422254;32;20245;-83
2021/10/03 04:27:37;;;;;;;7.90;1.60;;;;;;;;;;4421149;32;20205;-83
2021/10/03 04:33:07;;;;;;;9.07;1.33;;;;;;;;;;4416911;32;20184;-84
2021/10/03 04:35:39;;;;;;;8.27;1.58;;;;;;;;;;4421720;32;20161;-83
2021/10/03 04:38:04;;;;;;;6.90;1.33;;;;;;;;;;4407557;32;20509;-83
2021/10/03 04:40:46;;;;;;;5.82;1.35;;;;;;;;;;4407534;32;20237;-84
2021/10/03 04:43:11;;;;;;;5.18;1.37;;;;;;;;;;4421763;32;20145;-83
2021/10/03 04:45:47;;;;;;;;;;;;;;;;;;;;;
2021/10/03 04:48:49;;;;;;;;;;;;;;;;;;;;;
2021/10/03 04:51:18;;;;;;;5.53;1.10;;;;;;;;;;4403222;32;20492;-83
2021/10/03 04:54:04;;;;;;;9.00;1.60;;;;;;;;;;4391881;32;20154;-83
2021/10/03 04:56:32;;;;;;;10.15;1.60;;;;;;;;;;4405000;32;20165;-83
2021/10/03 04:58:57;;;;;;;9.57;1.40;;;;;;;;;;4383537;32;20182;-83
2021/10/03 05:01:36;;;;;;;5.07;1.25;;;;;;;;;;4406459;32;20155;-83
2021/10/03 05:04:22;;;;;;;6.43;1.40;;;;;;;;;;4406419;32;20535;-84
2021/10/03 05:06:55;;;;;;;5.68;1.45;;;;;;;;;;4405715;32;20153;-84
2021/10/03 05:09:36;;;;;;;7.62;1.67;;;;;;;;;;4406166;32;20129;-84
2021/10/03 05:15:20;;;;;;;8.30;1.73;;;;;;;;;;4405801;32;20218;-84
2021/10/03 05:17:57;;;;;;;5.90;1.70;;;;;;;;;;4405889;32;20169;-83
2021/10/03 05:20:31;;;;;;;7.93;2.00;;;;;;;;;;4406246;32;20122;-84
2021/10/03 05:23:09;;;;;;;8.10;1.92;;;;;;;;;;4406280;32;20167;-85
2021/10/03 05:29:39;;;;;;;;;;;;;;;;;;;;;
2021/10/03 05:38:37;;;;;;;10.18;2.10;;;;;;;;;;4373734;32;20151;-84
2021/10/03 05:41:14;;;;;;;9.00;2.00;;;;;;;;;;4373822;32;20173;-84
2021/10/03 05:43:57;;;;;;;;;;;;;;;;;;;;;
2021/10/03 05:46:23;;;;;;;9.05;1.77;;;;;;;;;;4436174;32;20167;-84
2021/10/03 05:49:28;;;;;;;;;;;;;;;;;;;;;
2021/10/03 05:52:26;;;;;;;8.60;1.73;;;;;;;;;;4426960;32;20154;-84
2021/10/03 05:57:50;;;;;;;;;;;;;;;;;;;;;
2021/10/03 06:00:15;;;;;;;9.05;2.03;;;;;;;;;;4435974;32;20169;-84
2021/10/03 06:02:53;;;;;;;10.60;3.42;;;;;;;;;;4433107;32;20202;-83
2021/10/03 06:05:18;;;;;;;10.35;2.20;;;;;;;;;;4431969;32;20146;-85
2021/10/03 06:07:43;;;;;;;9.45;2.28;;;;;;;;;;4424540;32;20570;-84
2021/10/03 06:10:15;;;;;;;11.00;2.50;;;;;;;;;;4433516;32;20555;-83
2021/10/03 06:13:07;;;;;;;;;;;;;;;;;;;;;
2021/10/03 06:15:42;;;;;;;10.77;2.12;;;;;;;;;;4417807;32;20134;-84
2021/10/03 06:18:26;;;;;;;8.98;2.70;;;;;;;;;;4420575;32;20138;-83
2021/10/03 06:20:54;;;;;;;6.43;2.10;;;;;;;;;;4415881;32;20177;-84
2021/10/03 06:23:22;;;;;;;6.95;1.50;;;;;;;;;;4406868;32;20158;-84
2021/10/03 06:25:52;;;;;;;10.85;2.33;;;;;;;;;;4421824;32;20553;-84
2021/10/03 06:28:21;;;;;;;12.10;2.40;;;;;;;;;;4405766;32;20149;-85
2021/10/03 06:30:46;;;;;;;10.00;2.25;;;;;;;;;;4420395;32;20163;-85
2021/10/03 06:33:56;;;;;;;11.43;2.37;;;;;;;;;;4420159;32;20455;-85
2021/10/03 06:36:05;;;;;;;10.80;2.58;;;;;;;;;;4407475;32;20235;-85
2021/10/03 06:41:42;;;;;;;8.88;3.17;;;;;;;;;;4373283;32;20170;-84
2021/10/03 06:44:29;;;;;;;10.75;3.90;;;;;;;;;;4402971;32;20560;-83
2021/10/03 06:47:16;;;;;;;10.43;3.50;;;;;;;;;;4404791;32;20158;-83
2021/10/03 06:50:00;;;;;;;12.98;3.80;;;;;;;;;;4404928;32;20138;-84
2021/10/03 06:52:34;;;;;;;9.77;2.22;;;;;;;;;;4405166;32;20208;-84
2021/10/03 06:55:09;;;;;;;3.67;1.20;;;;;;;;;;4405057;32;20138;-83
2021/10/03 06:57:38;;;;;;;5.95;1.65;;;;;;;;;;4404950;32;20620;-83
2021/10/03 07:00:25;;;;;;;5.03;1.48;;;;;;;;;;4403347;32;20168;-84
2021/10/03 07:02:52;;;;;;;4.30;1.52;;;;;;;;;;4413870;32;20220;-83
2021/10/03 07:05:35;;;;;;;6.60;1.42;;;;;;;;;;4419802;32;20474;-84
2021/10/03 07:08:08;;;;;;;9.40;1.30;;;;;;;;;;4405955;32;20162;-83
2021/10/03 07:11:04;;;;;;;6.22;1.50;;;;;;;;;;4407129;32;20208;-84
2021/10/03 07:13:30;;;;;;;5.53;1.70;;;;;;;;;;4422264;32;20197;-84
2021/10/03 07:15:58;;;;;;;5.00;1.70;;;;;;;;;;4412619;32;20433;-83
2021/10/03 07:18:26;;;;;;;6.62;2.00;;;;;;;;;;4407644;32;20214;-83
2021/10/03 07:21:02;;;;;;;8.43;2.15;;;;;;;;;;4407368;32;20160;-84
2021/10/03 07:23:34;;;;;;;9.60;2.15;;;;;;;;;;4393942;32;20157;-85
2021/10/03 07:26:11;;;;;;;10.13;2.60;;;;;;;;;;4408570;32;20154;-84
2021/10/03 07:28:36;;;;;;;9.18;2.10;;;;;;;;;;4421896;32;20180;-85
2021/10/03 07:31:27;;;;;;;6.53;2.10;;;;;;;;;;4408100;32;20478;-84
2021/10/03 07:34:15;;;;;;;7.57;1.80;;;;;;;;;;4416645;32;20188;-84
2021/10/03 07:36:53;;;;;;;7.20;1.70;;;;;;;;;;4422913;32;20146;-84
2021/10/03 07:39:24;;;;;;;6.07;1.62;;;;;;;;;;4404702;32;20207;-83
2021/10/03 07:41:58;;;;;;;6.40;2.00;;;;;;;;;;4421156;32;20579;-83
2021/10/03 07:44:34;;;;;;;10.23;2.97;;;;;;;;;;4405153;32;20165;-84
2021/10/03 07:50:25;;;;;;;9.57;1.90;;;;;;;;;;4394800;32;20234;-84
2021/10/03 07:56:31;;;;;;;;;;;;;;;;;;;;;
2021/10/03 07:58:59;;;;;;;6.47;2.08;;;;;;;;;;4358616;32;20179;-85
2021/10/03 08:04:56;;;;;;;7.55;2.72;;;;;;;;;;4408926;32;20613;-84
2021/10/03 08:07:54;;;;;;;;;;;;;;;;;;;;;
2021/10/03 08:10:36;;;;;;;8.45;2.55;;;;;;;;;;4434481;32;20492;-84
2021/10/03 08:13:30;;;;;;;7.80;2.10;;;;;;;;;;4437152;32;20212;-84
2021/10/03 08:16:06;;;;;;;;;;;;;;;;;;;;;
2021/10/03 08:18:44;;;;;;;8.73;2.58;;;;;;;;;;4376461;32;20294;-84
2021/10/03 08:21:19;;;;;;;6.37;1.98;;;;;;;;;;4388003;32;20176;-84
2021/10/03 08:24:29;;;;;;;;;;;;;;;;;;;;;
2021/10/03 08:27:04;;;;;;;6.53;2.20;;;;;;;;;;4347380;33;20690;-83
2021/10/03 08:29:36;;;;;;;10.45;2.65;;;;;;;;;;4410354;32;20172;-83
2021/10/03 08:32:17;;;;;;;5.18;2.20;;;;;;;;;;4420138;32;20639;-84
2021/10/03 08:35:11;;;;;;;5.07;2.08;;;;;;;;;;4416732;32;20529;-83
2021/10/03 08:37:44;;;;;;;5.07;2.08;;;;;;;;;;4421339;32;20170;-83
2021/10/03 08:40:30;;;;;;;4.90;2.00;;;;;;;;;;4422074;32;20168;-82
2021/10/03 08:52:18;;;;;;;13.10;6.28;;;;;;;;;;4372577;32;20167;-84
2021/10/03 08:54:53;;;;;;;5.95;2.15;;;;;;;;;;4392045;32;20158;-84
2021/10/03 09:01:13;;;;;;;7.30;1.85;;;;;;;;;;4420699;32;20260;-84
2021/10/03 09:03:45;;;;;;;10.30;2.00;;;;;;;;;;4410449;32;20273;-84
2021/10/03 09:06:16;;;;;;;5.62;2.05;;;;;;;;;;4401732;32;20200;-84
2021/10/03 09:08:53;;;;;;;5.87;1.42;;;;;;;;;;4411421;32;20146;-84
2021/10/03 09:11:37;;;;;;;5.85;2.10;;;;;;;;;;4404337;32;20203;-83
2021/10/03 09:14:27;;;;;;;4.45;1.73;;;;;;;;;;4421355;32;20153;-84
2021/10/03 09:17:18;;;;;;;6.47;2.20;;;;;;;;;;4420978;32;20179;-82
2021/10/03 09:20:25;;;;;;;8.30;2.70;;;;;;;;;;4396516;32;20202;-81
2021/10/03 09:23:55;;;;;;;6.65;2.42;;;;;;;;;;4406297;32;20197;-82
2021/10/03 09:26:16;;;;;;;6.47;2.60;;;;;;;;;;4392434;32;20205;-83
2021/10/03 09:28:54;;;;;;;;;;;;;;;;;;;;;
2021/10/03 09:34:40;;;;;;;7.90;3.05;;;;;;;;;;4380201;32;20215;-83
2021/10/03 09:37:30;;;;;;;6.57;3.55;;;;;;;;;;4399169;32;20254;-83
2021/10/03 09:40:15;;;;;;;6.95;2.70;;;;;;;;;;4415426;32;20216;-82
2021/10/03 09:42:59;;;;;;;;;;;;;;;;;;;;;
2021/10/03 09:45:43;;;;;;;7.40;3.28;;;;;;;;;;4432722;32;20168;-83
2021/10/03 09:48:09;;;;;;;12.45;3.42;;;;;;;;;;4432779;32;20126;-82
2021/10/03 09:50:55;;;;;;;7.30;3.47;;;;;;;;;;4432031;32;20171;-82
2021/10/03 09:53:24;;;;;;;6.78;3.58;;;;;;;;;;4434924;32;20144;-82
2021/10/03 09:56:14;;;;;;;9.95;3.55;;;;;;;;;;4421637;32;20172;-83
2021/10/03 09:59:22;;;;;;;;;;;;;;;;;;;;;
2021/10/03 10:01:52;;;;;;;10.27;3.58;;;;;;;;;;4429135;32;20193;-84
2021/10/03 10:04:33;;;;;;;8.52;3.72;;;;;;;;;;4426384;32;20184;-83
2021/10/03 10:07:07;;;;;;;7.35;3.67;;;;;;;;;;4416137;32;20115;-83
2021/10/03 10:10:02;;;;;;;8.63;4.75;;;;;;;;;;4418474;32;20145;-83
2021/10/03 10:12:39;;;;;;;8.00;5.57;;;;;;;;;;4404855;32;20600;-82
2021/10/03 10:15:10;;;;;;;8.57;5.68;;;;;;;;;;4417848;32;20137;-84
2021/10/03 10:17:39;;;;;;;6.43;4.47;;;;;;;;;;4416097;32;20135;-82
2021/10/03 10:20:17;;;;;;;10.00;4.80;;;;;;;;;;4417746;32;20130;-84
2021/10/03 10:22:58;;;;;;;10.95;6.60;;;;;;;;;;4418989;32;20146;-85
2021/10/03 10:25:59;;;;;;;10.48;6.10;;;;;;;;;;4408929;32;20176;-84
2021/10/03 10:28:33;;;;;;;11.27;5.95;;;;;;;;;;4409909;32;20272;-80
2021/10/03 10:31:28;;;;;;;6.65;5.03;;;;;;;;;;4420427;32;20153;-80
2021/10/03 10:33:53;;;;;;;9.43;5.57;;;;;;;;;;4420359;32;20175;-79
2021/10/03 10:36:20;;;;;;;9.30;5.28;;;;;;;;;;4420393;32;20145;-80
2021/10/03 10:39:04;;;;;;;8.18;5.22;;;;;;;;;;4406252;32;20266;-79
2021/10/03 10:41:31;;;;;;;10.13;5.60;;;;;;;;;;4420433;32;20142;-81
2021/10/03 10:44:22;;;;;;;7.30;3.62;;;;;;;;;;4416730;32;20172;-80
2021/10/03 10:46:51;;;;;;;11.70;4.70;;;;;;;;;;4408264;32;20299;-82
2021/10/03 10:49:37;;;;;;;5.97;3.47;;;;;;;;;;4422030;32;20142;-80
2021/10/03 10:52:18;;;;;;;5.87;3.50;;;;;;;;;;4423086;32;20154;-83
2021/10/03 10:55:39;;;;;;;7.87;4.10;;;;;;;;;;4422857;32;20217;-80
2021/10/03 10:58:09;;;;;;;6.62;4.25;;;;;;;;;;4345973;33;20242;-80
2021/10/03 11:00:46;;;;;;;7.75;4.75;;;;;;;;;;4346150;33;20143;-81
2021/10/03 11:03:19;;;;;;;8.60;5.47;;;;;;;;;;4374954;32;20189;-82
2021/10/03 11:09:17;;;;;;;6.55;3.37;;;;;;;;;;4406095;32;20574;-81
2021/10/03 11:12:21;;;;;;;7.80;2.40;;;;;;;;;;4419389;32;20169;-82
2021/10/03 11:14:46;;;;;;;5.45;2.20;;;;;;;;;;4348501;33;20167;-82
2021/10/03 11:17:17;;;;;;;4.75;2.83;;;;;;;;;;4360738;32;20210;-82
2021/10/03 11:19:55;;;;;;;9.15;3.50;;;;;;;;;;4376398;32;20161;-83
2021/10/03 11:22:22;;;;;;;5.45;2.65;;;;;;;;;;4407838;32;20130;-83
2021/10/03 11:25:02;;;;;;;7.35;2.75;;;;;;;;;;4407452;32;20150;-82
2021/10/03 11:30:25;;;;;;;3.75;1.85;;;;;;;;;;4412645;32;20191;-82
2021/10/03 11:33:25;;;;;;;4.78;2.05;;;;;;;;;;4408094;32;20221;-82
2021/10/03 11:36:25;;;;;;;4.57;1.90;;;;;;;;;;4407203;32;20157;-82
2021/10/03 11:42:09;;;;;;;6.37;2.40;;;;;;;;;;4397077;32;20569;-82
2021/10/03 11:44:50;;;;;;;5.32;2.90;;;;;;;;;;4406570;32;20168;-81
2021/10/03 11:47:26;;;;;;;6.37;3.08;;;;;;;;;;4415898;32;20182;-82
2021/10/03 11:50:21;;;;;;;;;;;;;;;;;;;;;
2021/10/03 11:53:15;;;;;;;5.18;2.70;;;;;;;;;;4422003;32;20154;-81
2021/10/03 11:59:20;;;;;;;4.50;2.00;;;;;;;;;;4385427;32;20190;-84
2021/10/03 12:01:54;;;;;;;3.97;2.10;;;;;;;;;;4408396;32;20194;-82
2021/10/03 12:07:34;;;;;;;3.45;1.90;;;;;;;;;;4387250;32;20484;-87
2021/10/03 12:10:39;;;;;;;;;;;;;;;;;;;;;
2021/10/03 12:13:17;;;;;;;6.12;2.12;;;;;;;;;;4406648;32;20157;-86
2021/10/03 12:15:49;;;;;;;7.05;2.35;;;;;;;;;;4402061;32;20162;-88
2021/10/03 12:18:41;;;;;;;5.03;1.90;;;;;;;;;;4425809;32;20548;-87
2021/10/03 12:21:27;;;;;;;2.28;1.10;;;;;;;;;;4427110;32;20178;-87
2021/10/03 12:23:56;;;;;;;3.03;1.15;;;;;;;;;;4427038;32;20137;-88
2021/10/03 12:26:55;;;;;;;2.05;1.05;;;;;;;;;;4415750;32;20228;-88
2021/10/03 12:29:28;;;;;;;2.33;1.62;;;;;;;;;;4428110;32;20185;-88
2021/10/03 12:32:26;;;;;;;2.42;1.30;;;;;;;;;;4430367;32;20142;-88
2021/10/03 12:38:17;;;;;;;2.90;1.20;;;;;;;;;;4381948;32;20242;-87
2021/10/03 12:43:37;;;;;;;3.22;1.05;;;;;;;;;;4321541;33;20153;-86
2021/10/03 12:46:22;;;;;;;1.65;1.00;;;;;;;;;;4322455;33;20143;-85
2021/10/03 12:48:57;;;;;;;1.70;0.90;;;;;;;;;;4330929;33;20287;-84
2021/10/03 12:54:50;;;;;;;;;;;;;;;;;;;;;
2021/10/03 12:58:15;;;;;;;1.30;0.80;;;;;;;;;;4310595;33;20684;-83
2021/10/03 13:00:26;;;;;;;3.17;1.20;;;;;;;;;;4296033;33;20199;-84
2021/10/03 13:03:05;;;;;;;;;;;;;;;;;;;;;
2021/10/03 13:05:39;;;;;;;3.67;1.00;;;;;;;;;;4300434;33;20158;-84
2021/10/03 13:08:41;;;;;;;2.33;0.88;;;;;;;;;;4306279;33;20163;-86
2021/10/03 13:14:53;;;;;;;;;;;;;;;;;;;;;
2021/10/03 13:17:25;;;;;;;3.65;1.10;;;;;;;;;;4300932;33;20173;-84
2021/10/03 13:20:03;;;;;;;2.67;1.17;;;;;;;;;;4314837;33;20191;-84
2021/10/03 13:22:47;;;;;;;2.75;1.08;;;;;;;;;;4304109;33;20198;-84
2021/10/03 13:25:28;;;;;;;2.83;1.60;;;;;;;;;;4318582;33;20164;-84
2021/10/03 13:28:18;;;;;;;2.35;1.10;;;;;;;;;;4345376;32;20232;-84
2021/10/03 13:33:49;;;;;;;4.03;1.70;;;;;;;;;;4397465;32;20191;-85
2021/10/03 13:39:27;;;;;;;3.80;1.48;;;;;;;;;;4345093;33;20190;-88
2021/10/03 13:44:49;;;;;;;2.58;1.30;;;;;;;;;;4357392;32;20194;-87
2021/10/03 13:47:23;;;;;;;4.32;1.55;;;;;;;;;;4389631;32;20207;-87
2021/10/03 13:50:21;;;;;;;2.15;1.48;;;;;;;;;;4400780;32;20201;-85
2021/10/03 13:52:53;;;;;;;3.95;1.92;;;;;;;;;;4391972;32;20569;-86
2021/10/03 13:55:19;;;;;;;2.65;1.60;;;;;;;;;;4406384;32;20142;-88
2021/10/03 13:58:18;;;;;;;3.92;1.70;;;;;;;;;;4390256;32;20531;-87
2021/10/03 14:00:45;;;;;;;7.25;2.50;;;;;;;;;;4404658;32;20178;-87
2021/10/03 14:03:14;;;;;;;5.53;2.65;;;;;;;;;;4400909;32;20216;-87
2021/10/03 14:09:15;;;;;;;4.75;2.37;;;;;;;;;;4342580;33;20236;-86
2021/10/03 14:12:20;;;;;;;4.78;1.90;;;;;;;;;;4402753;32;20170;-86
2021/10/03 14:17:50;;;;;;;4.85;1.70;;;;;;;;;;4322484;32;20193;-86
2021/10/03 14:20:54;;;;;;;4.10;1.20;;;;;;;;;;4409214;32;20179;-86
2021/10/03 14:23:41;;;;;;;2.42;0.93;;;;;;;;;;4346915;33;20218;-87
2021/10/03 14:26:20;;;;;;;2.00;1.00;;;;;;;;;;4346654;33;20191;-86
2021/10/03 14:28:57;;;;;;;2.20;0.80;;;;;;;;;;4346751;33;20177;-85
2021/10/03 14:31:29;;;;;;;3.85;1.00;;;;;;;;;;4382869;32;20165;-84
2021/10/03 14:34:08;;;;;;;1.30;0.80;;;;;;;;;;4399666;32;20154;-85
2021/10/03 14:36:42;;;;;;;2.37;0.70;;;;;;;;;;4419182;32;20478;-85
2021/10/03 14:39:13;;;;;;;4.05;1.10;;;;;;;;;;4423220;32;20140;-83
2021/10/03 14:41:56;;;;;;;;;;;;;;;;;;;;;
2021/10/03 14:44:21;;;;;;;3.12;1.00;;;;;;;;;;4408288;32;20142;-82
2021/10/03 14:46:49;;;;;;;5.25;1.20;;;;;;;;;;4407753;32;20134;-83
2021/10/03 14:49:24;;;;;;;3.10;1.00;;;;;;;;;;4414523;32;20164;-83
2021/10/03 14:51:49;;;;;;;7.28;1.67;;;;;;;;;;4423228;32;20151;-81
2021/10/03 14:54:15;;;;;;;1.52;1.00;;;;;;;;;;4423083;32;20157;-83
2021/10/03 14:56:40;;;;;;;5.07;1.02;;;;;;;;;;4406021;32;20166;-80
2021/10/03 14:59:05;;;;;;;2.60;1.12;;;;;;;;;;4408394;32;20200;-81
2021/10/03 15:01:31;;;;;;;1.25;0.93;;;;;;;;;;4408294;32;20174;-80
2021/10/03 15:03:56;;;;;;;2.83;0.98;;;;;;;;;;4399251;32;20189;-80
2021/10/03 15:06:21;;;;;;;3.17;0.70;;;;;;;;;;4407558;32;20131;-80
2021/10/03 15:08:47;;;;;;;3.78;0.88;;;;;;;;;;4408454;32;20180;-80
2021/10/03 15:11:13;;;;;;;2.25;0.95;;;;;;;;;;4418060;32;20472;-80
2021/10/03 15:13:41;;;;;;;1.08;0.88;;;;;;;;;;4413927;32;20603;-80
2021/10/03 15:16:12;;;;;;;0.77;0.60;;;;;;;;;;4417641;32;20181;-80
2021/10/03 15:18:41;;;;;;;1.70;0.80;;;;;;;;;;4405728;32;20169;-80
2021/10/03 15:21:07;;;;;;;3.20;0.40;;;;;;;;;;4407194;32;20203;-79
2021/10/03 15:23:34;;;;;;;1.60;0.75;;;;;;;;;;4412825;32;20141;-79
2021/10/03 15:26:03;;;;;;;2.55;0.85;;;;;;;;;;4395986;32;20181;-79
2021/10/03 15:28:28;;;;;;;2.78;0.80;;;;;;;;;;4395589;32;20649;-80
2021/10/03 15:30:55;;;;;;;4.12;0.90;;;;;;;;;;4406209;32;20138;-79
2021/10/03 15:33:21;;;;;;;1.12;0.65;;;;;;;;;;4412001;32;20146;-81
2021/10/03 15:35:46;;;;;;;3.45;0.80;;;;;;;;;;4414299;32;20197;-79
2021/10/03 15:38:19;;;;;;;2.90;0.80;;;;;;;;;;4405329;32;20596;-80
2021/10/03 15:40:46;;;;;;;1.73;0.70;;;;;;;;;;4407138;32;20508;-80
2021/10/03 15:43:12;;;;;;;3.60;1.00;;;;;;;;;;4414679;32;20184;-78
2021/10/03 15:45:37;;;;;;;3.10;0.82;;;;;;;;;;4422136;32;20503;-81
2021/10/03 15:48:05;;;;;;;2.55;0.70;;;;;;;;;;4420176;32;20157;-80
2021/10/03 15:50:30;;;;;;;1.98;0.93;;;;;;;;;;4419561;32;20154;-77
2021/10/03 15:52:55;;;;;;;3.35;1.10;;;;;;;;;;4422137;32;20173;-79
2021/10/03 15:55:21;;;;;;;2.58;1.12;;;;;;;;;;4421808;32;20142;-80
2021/10/03 15:57:46;;;;;;;3.42;1.00;;;;;;;;;;4421864;32;20150;-80
2021/10/03 16:00:12;;;;;;;4.37;1.10;;;;;;;;;;4421448;32;20232;-78
2021/10/03 16:02:37;;;;;;;3.42;1.17;;;;;;;;;;4421330;32;20499;-79
2021/10/03 16:05:03;;;;;;;4.93;1.33;;;;;;;;;;4407851;32;20622;-80
2021/10/03 16:07:33;;;;;;;2.33;1.40;;;;;;;;;;4406907;32;20525;-81
2021/10/03 16:10:06;;;;;;;2.55;1.00;;;;;;;;;;4417378;32;20211;-79
2021/10/03 16:12:31;;;;;;;2.70;1.30;;;;;;;;;;4407912;32;20220;-79
2021/10/03 16:14:56;;;;;;;3.78;1.52;;;;;;;;;;4407997;32;20157;-81
2021/10/03 16:17:21;;;;;;;3.67;1.30;;;;;;;;;;4420517;32;20130;-79
2021/10/03 16:19:47;;;;;;;2.40;1.30;;;;;;;;;;4421827;32;20150;-79
2021/10/03 16:22:15;;;;;;;3.28;1.42;;;;;;;;;;4421716;32;20154;-81
2021/10/03 16:24:55;;;;;;;3.87;1.23;;;;;;;;;;4409203;32;20682;-80
2021/10/03 16:27:21;;;;;;;4.07;1.42;;;;;;;;;;4420923;32;20197;-79
2021/10/03 16:29:46;;;;;;;6.93;1.70;;;;;;;;;;4419127;32;20169;-79
2021/10/03 16:32:11;;;;;;;2.37;1.25;;;;;;;;;;4414149;32;20141;-79
2021/10/03 16:34:39;;;;;;;5.82;1.48;;;;;;;;;;4406808;32;20184;-80
2021/10/03 16:37:05;;;;;;;3.67;1.58;;;;;;;;;;4418775;32;20172;-80
2021/10/03 16:39:30;;;;;;;4.28;1.42;;;;;;;;;;4421692;32;20146;-78
2021/10/03 16:41:58;;;;;;;2.37;1.42;;;;;;;;;;4421370;32;20166;-80
2021/10/03 16:44:23;;;;;;;4.40;2.22;;;;;;;;;;4408316;32;20204;-79
2021/10/03 16:46:58;;;;;;;4.75;2.10;;;;;;;;;;4405959;32;20445;-80
2021/10/03 16:49:24;;;;;;;4.20;1.80;;;;;;;;;;4421272;32;20549;-80
2021/10/03 16:51:49;;;;;;;2.67;1.50;;;;;;;;;;4406792;32;20203;-80
2021/10/03 16:54:23;;;;;;;3.83;1.62;;;;;;;;;;4419452;32;20145;-80
2021/10/03 16:57:04;;;;;;;5.32;1.60;;;;;;;;;;4395603;32;20178;-80
2021/10/03 16:59:29;;;;;;;3.90;1.83;;;;;;;;;;4419683;32;20164;-79
2021/10/03 17:01:54;;;;;;;4.45;1.55;;;;;;;;;;4420479;32;20157;-80
2021/10/03 17:04:20;;;;;;;3.25;1.10;;;;;;;;;;4417700;32;20149;-81
2021/10/03 17:06:48;;;;;;;3.85;1.37;;;;;;;;;;4416733;32;20207;-78
2021/10/03 17:09:16;;;;;;;1.58;1.05;;;;;;;;;;4410213;32;20146;-79
2021/10/03 17:11:41;;;;;;;4.55;1.10;;;;;;;;;;4419102;32;20467;-79
2021/10/03 17:14:06;;;;;;;2.60;1.00;;;;;;;;;;4421141;32;20592;-81
2021/10/03 17:16:32;;;;;;;4.15;1.17;;;;;;;;;;4420151;32;20130;-79
2021/10/03 17:18:57;;;;;;;3.15;0.70;;;;;;;;;;4392131;32;20184;-79
2021/10/03 17:21:28;;;;;;;2.42;1.23;;;;;;;;;;4409142;32;20154;-80
2021/10/03 17:23:54;;;;;;;2.33;1.00;;;;;;;;;;4421595;32;20145;-80
2021/10/03 17:26:24;;;;;;;4.47;1.25;;;;;;;;;;4407111;32;20177;-79
2021/10/03 17:28:50;;;;;;;4.05;1.45;;;;;;;;;;4406192;32;20490;-80
2021/10/03 17:31:17;;;;;;;2.83;1.33;;;;;;;;;;4420870;32;20173;-79
2021/10/03 17:33:44;;;;;;;6.75;1.55;;;;;;;;;;4420815;32;20164;-80
2021/10/03 17:36:11;;;;;;;5.15;1.55;;;;;;;;;;4416844;32;20586;-81
2021/10/03 17:38:37;;;;;;;4.37;1.60;;;;;;;;;;4414521;32;20492;-80
2021/10/03 17:41:15;;;;;;;3.90;1.40;;;;;;;;;;4416963;32;20195;-78
2021/10/03 17:43:41;;;;;;;4.75;1.40;;;;;;;;;;4420392;32;20118;-82
2021/10/03 17:46:12;;;;;;;2.92;1.30;;;;;;;;;;4420540;32;20196;-80
2021/10/03 17:48:44;;;;;;;3.05;1.02;;;;;;;;;;4406870;32;20226;-78
2021/10/03 17:51:33;;;;;;;4.03;1.27;;;;;;;;;;4420692;32;20145;-79
2021/10/03 17:53:58;;;;;;;3.03;1.30;;;;;;;;;;4418442;32;20633;-79
2021/10/03 17:56:27;;;;;;;5.12;1.40;;;;;;;;;;4420424;32;20164;-80
2021/10/03 17:58:52;;;;;;;4.53;1.52;;;;;;;;;;4420006;32;20202;-80
2021/10/03 18:01:17;;;;;;;5.40;1.60;;;;;;;;;;4417748;32;20524;-78